createdAt,value
2023-03-24T00:00:21.353Z,52.04
2023-03-24T00:02:51.688Z,52.00
2023-03-24T00:05:22.273Z,51.72
2023-03-24T00:07:55.015Z,51.46
2023-03-24T00:10:24.447Z,51.46
2023-03-24T00:12:53.476Z,51.48
2023-03-24T00:15:24.217Z,51.35
2023-03-24T00:17:55.836Z,51.15
2023-03-24T00:20:26.493Z,51.13
2023-03-24T00:22:58.347Z,51.25
2023-03-24T00:25:32.841Z,51.12
2023-03-24T00:28:05.651Z,50.99
2023-03-24T00:30:35.673Z,51.11
2023-03-24T00:33:05.263Z,51.24
2023-03-24T00:35:35.248Z,51.18
2023-03-24T00:38:04.861Z,51.22
2023-03-24T00:40:33.956Z,51.25
2023-03-24T00:43:04.541Z,51.28
2023-03-24T00:45:34.131Z,51.29
2023-03-24T00:48:05.988Z,51.41
2023-03-24T00:50:35.011Z,51.42
2023-03-24T00:53:06.048Z,51.44
2023-03-24T00:55:37.732Z,51.46
2023-03-24T00:58:06.764Z,51.46
2023-03-24T01:00:38.890Z,51.49
2023-03-24T01:03:09.589Z,51.49
2023-03-24T01:05:41.935Z,51.34
2023-03-24T01:08:11.600Z,51.40
2023-03-24T01:10:46.897Z,51.44
2023-03-24T01:13:18.050Z,51.46
2023-03-24T01:15:47.453Z,51.45
2023-03-24T01:18:17.198Z,51.36
2023-03-24T01:20:47.054Z,51.36
2023-03-24T01:23:23.715Z,51.44
2023-03-24T01:25:53.700Z,51.59
2023-03-24T01:28:28.382Z,51.80
2023-03-24T01:30:57.395Z,51.84
2023-03-24T01:33:26.727Z,51.92
2023-03-24T01:35:56.225Z,52.07
2023-03-24T01:38:25.529Z,52.14
2023-03-24T01:40:55.400Z,52.24
2023-03-24T01:43:32.987Z,52.38
2023-03-24T01:46:07.715Z,52.49
2023-03-24T01:48:45.364Z,52.54
2023-03-24T01:51:33.597Z,52.66
2023-03-24T01:54:19.492Z,52.73
2023-03-24T01:56:54.135Z,52.82
2023-03-24T01:59:27.264Z,52.95
2023-03-24T02:01:59.548Z,53.00
2023-03-24T02:04:38.462Z,53.12
2023-03-24T02:07:22.168Z,53.30
2023-03-24T02:09:52.726Z,53.44
2023-03-24T02:12:22.010Z,53.55
2023-03-24T02:14:52.860Z,53.73
2023-03-24T02:17:29.799Z,53.96
2023-03-24T02:20:45.670Z,54.14
2023-03-24T02:23:44.391Z,54.34
2023-03-24T02:26:41.572Z,54.58
2023-03-24T02:30:06.534Z,54.76
2023-03-24T02:33:09.224Z,54.92
2023-03-24T02:36:24.465Z,55.03
2023-03-24T02:39:40.204Z,55.23
2023-03-24T02:42:18.096Z,55.35
2023-03-24T02:45:11.511Z,55.47
2023-03-24T02:48:13.311Z,55.60
2023-03-24T02:51:06.832Z,55.74
2023-03-24T02:54:01.270Z,55.80
2023-03-24T02:56:44.855Z,55.89
2023-03-24T02:59:23.970Z,55.96
2023-03-24T03:02:23.184Z,55.98
2023-03-24T03:05:03.067Z,56.06
2023-03-24T03:07:33.322Z,56.12
2023-03-24T03:10:24.865Z,56.12
2023-03-24T03:12:57.439Z,56.13
2023-03-24T03:15:31.939Z,56.09
2023-03-24T03:18:06.984Z,56.17
2023-03-24T03:20:42.383Z,56.17
2023-03-24T03:23:13.926Z,56.20
2023-03-24T03:25:48.425Z,56.29
2023-03-24T03:28:22.889Z,56.40
2023-03-24T03:30:58.833Z,56.43
2023-03-24T03:33:38.429Z,56.48
2023-03-24T03:36:27.894Z,56.60
2023-03-24T03:39:30.777Z,56.68
2023-03-24T03:42:01.575Z,56.79
2023-03-24T03:44:32.007Z,56.84
2023-03-24T03:47:01.227Z,56.90
2023-03-24T03:49:32.311Z,56.97
2023-03-24T03:52:03.291Z,57.03
2023-03-24T03:54:34.264Z,57.06
2023-03-24T03:57:03.354Z,57.11
2023-03-24T03:59:50.665Z,57.16
2023-03-24T04:02:49.062Z,57.23
2023-03-24T04:05:45.592Z,57.31
2023-03-24T04:08:44.469Z,57.44
2023-03-24T04:11:30.542Z,57.56
2023-03-24T04:14:41.925Z,57.68
2023-03-24T04:17:30.051Z,57.79
2023-03-24T04:20:12.065Z,57.80
2023-03-24T04:23:08.800Z,57.77
2023-03-24T04:25:58.080Z,57.76
2023-03-24T04:28:41.978Z,57.98
2023-03-24T04:31:24.077Z,58.27
2023-03-24T04:34:05.430Z,58.40
2023-03-24T04:36:43.143Z,58.54
2023-03-24T04:39:33.961Z,58.56
2023-03-24T04:42:08.342Z,58.52
2023-03-24T04:44:37.915Z,58.54
2023-03-24T04:47:25.848Z,58.50
2023-03-24T04:50:09.809Z,58.49
2023-03-24T04:52:41.336Z,58.48
2023-03-24T04:55:24.771Z,58.62
2023-03-24T04:57:53.783Z,58.81
2023-03-24T05:00:24.148Z,59.00
2023-03-24T05:02:53.253Z,59.01
2023-03-24T05:05:24.203Z,58.96
2023-03-24T05:07:56.673Z,59.03
2023-03-24T05:10:25.790Z,59.04
2023-03-24T05:12:58.220Z,58.97
2023-03-24T05:15:43.771Z,58.89
2023-03-24T05:18:17.470Z,59.10
2023-03-24T05:20:46.371Z,59.46
2023-03-24T05:23:17.757Z,59.98
2023-03-24T05:25:49.496Z,60.39
2023-03-24T05:28:18.476Z,60.55
2023-03-24T05:30:47.435Z,60.81
2023-03-24T05:33:22.540Z,60.83
2023-03-24T05:35:52.422Z,60.76
2023-03-24T05:38:21.304Z,60.40
2023-03-24T05:40:51.838Z,60.30
2023-03-24T05:43:20.848Z,60.26
2023-03-24T05:45:51.651Z,60.19
2023-03-24T05:48:24.467Z,60.04
2023-03-24T05:50:56.572Z,59.79
2023-03-24T05:53:26.235Z,59.65
2023-03-24T05:56:03.168Z,59.54
2023-03-24T05:58:35.596Z,59.34
2023-03-24T06:01:09.989Z,59.10
2023-03-24T06:03:40.145Z,58.86
2023-03-24T06:06:14.608Z,58.79
2023-03-24T06:08:45.222Z,58.57
2023-03-24T06:11:18.047Z,58.38
2023-03-24T06:13:52.200Z,58.22
2023-03-24T06:16:23.631Z,58.04
2023-03-24T06:18:54.702Z,57.78
2023-03-24T06:21:27.358Z,57.77
2023-03-24T06:23:58.210Z,57.78
2023-03-24T06:26:30.818Z,57.46
2023-03-24T06:29:01.740Z,57.13
2023-03-24T06:31:34.334Z,57.07
2023-03-24T06:34:07.191Z,56.96
2023-03-24T06:36:36.310Z,57.02
2023-03-24T06:39:05.924Z,57.09
2023-03-24T06:41:35.432Z,57.15
2023-03-24T06:44:06.044Z,57.17
2023-03-24T06:46:37.549Z,57.22
2023-03-24T06:49:06.272Z,57.32
2023-03-24T06:51:35.257Z,57.32
2023-03-24T06:54:04.615Z,57.41
2023-03-24T06:56:34.940Z,57.48
2023-03-24T06:59:03.954Z,57.53
2023-03-24T07:01:35.892Z,57.61
2023-03-24T07:04:11.404Z,57.64
2023-03-24T07:07:05.104Z,57.66
2023-03-24T07:09:21.147Z,57.76
2023-03-24T07:11:50.378Z,57.75
2023-03-24T07:14:21.253Z,57.88
2023-03-24T07:16:53.391Z,57.97
2023-03-24T07:19:24.090Z,58.04
2023-03-24T07:21:55.301Z,58.14
2023-03-24T07:24:26.804Z,58.13
2023-03-24T07:26:57.943Z,58.21
2023-03-24T07:29:27.560Z,58.21
2023-03-24T07:32:00.617Z,58.12
2023-03-24T07:34:30.541Z,58.10
2023-03-24T07:37:06.417Z,58.03
2023-03-24T07:39:36.393Z,58.14
2023-03-24T07:42:06.243Z,58.11
2023-03-24T07:44:37.087Z,58.17
2023-03-24T07:47:09.002Z,58.14
2023-03-24T07:49:38.061Z,58.07
2023-03-24T07:52:09.672Z,58.04
2023-03-24T07:54:47.263Z,58.03
2023-03-24T07:57:18.044Z,57.91
2023-03-24T07:59:47.156Z,57.83
2023-03-24T08:02:21.801Z,57.79
2023-03-24T08:04:56.335Z,57.73
2023-03-24T08:07:30.115Z,57.71
2023-03-24T08:10:00.065Z,57.39
2023-03-24T08:12:29.370Z,57.33
2023-03-24T08:14:58.141Z,57.28
2023-03-24T08:17:28.281Z,56.97
2023-03-24T08:20:00.970Z,56.93
2023-03-24T08:22:28.761Z,56.88
2023-03-24T08:24:57.390Z,56.85
2023-03-24T08:27:28.552Z,56.75
2023-03-24T08:30:02.005Z,56.71
2023-03-24T08:32:32.324Z,56.56
2023-03-24T08:35:02.766Z,56.58
2023-03-24T08:37:32.505Z,56.61
2023-03-24T08:40:05.329Z,56.62
2023-03-24T08:42:33.989Z,56.55
2023-03-24T08:45:05.118Z,56.58
2023-03-24T08:47:34.225Z,56.47
2023-03-24T08:50:06.622Z,56.26
2023-03-24T08:52:36.827Z,56.11
2023-03-24T08:55:07.499Z,56.06
2023-03-24T08:57:36.686Z,56.07
2023-03-24T09:00:08.795Z,55.75
2023-03-24T09:02:39.152Z,55.63
2023-03-24T09:05:09.048Z,55.46
2023-03-24T09:07:38.922Z,55.38
2023-03-24T09:10:09.736Z,55.36
2023-03-24T09:12:40.156Z,54.92
2023-03-24T09:15:13.177Z,54.89
2023-03-24T09:17:41.758Z,54.55
2023-03-24T09:20:13.944Z,54.56
2023-03-24T09:22:45.437Z,54.26
2023-03-24T09:25:18.639Z,53.88
2023-03-24T09:27:47.555Z,53.75
2023-03-24T09:30:17.921Z,53.45
2023-03-24T09:32:47.618Z,53.19
2023-03-24T09:35:17.004Z,53.25
2023-03-24T09:37:48.095Z,53.27
2023-03-24T09:40:24.769Z,52.84
2023-03-24T09:43:01.977Z,52.69
2023-03-24T09:45:32.991Z,52.49
2023-03-24T09:48:13.662Z,52.33
2023-03-24T09:50:53.356Z,52.15
2023-03-24T09:54:04.349Z,52.03
2023-03-24T09:56:35.597Z,51.92
2023-03-24T09:59:18.060Z,51.73
2023-03-24T10:01:49.668Z,51.26
2023-03-24T10:04:24.140Z,51.30
2023-03-24T10:07:20.786Z,51.38
2023-03-24T10:09:57.823Z,50.90
2023-03-24T10:12:45.778Z,50.71
2023-03-24T10:18:14.218Z,50.45
2023-03-24T10:21:22.662Z,50.02
2023-03-24T10:24:25.198Z,49.71
2023-03-24T10:27:18.830Z,49.75
2023-03-24T10:29:47.934Z,49.40
2023-03-24T10:32:26.972Z,49.21
2023-03-24T10:34:59.292Z,48.96
2023-03-24T10:37:29.386Z,48.57
2023-03-24T10:40:01.318Z,48.34
2023-03-24T10:42:34.007Z,47.95
2023-03-24T10:45:02.825Z,47.77
2023-03-24T10:47:33.056Z,47.43
2023-03-24T10:50:14.331Z,47.35
2023-03-24T10:52:41.100Z,47.15
2023-03-24T10:55:18.846Z,47.11
2023-03-24T10:57:51.496Z,46.94
2023-03-24T11:00:31.316Z,47.12
2023-03-24T11:03:10.396Z,46.94
2023-03-24T11:05:40.628Z,46.92
2023-03-24T11:08:28.204Z,46.81
2023-03-24T11:10:58.769Z,46.73
2023-03-24T11:13:33.196Z,46.19
2023-03-24T11:16:11.879Z,45.69
2023-03-24T11:19:00.684Z,45.30
2023-03-24T11:21:32.230Z,44.90
2023-03-24T11:24:03.770Z,44.82
2023-03-24T11:26:35.873Z,44.80
2023-03-24T11:29:15.802Z,44.80
2023-03-24T11:31:58.139Z,44.66
2023-03-24T11:34:36.655Z,45.03
2023-03-24T11:37:16.254Z,45.26
2023-03-24T11:39:45.921Z,44.81
2023-03-24T11:42:18.061Z,44.69
2023-03-24T11:44:51.121Z,44.79
2023-03-24T11:47:40.165Z,44.87
2023-03-24T11:50:20.039Z,45.05
2023-03-24T11:53:18.782Z,44.87
2023-03-24T11:56:07.739Z,44.71
2023-03-24T11:58:44.664Z,44.65
2023-03-24T12:01:24.884Z,44.63
2023-03-24T12:04:05.523Z,44.46
2023-03-24T12:07:03.026Z,44.44
2023-03-24T12:09:52.867Z,44.32
2023-03-24T12:12:57.924Z,44.31
2023-03-24T12:15:47.426Z,44.26
2023-03-24T12:18:30.860Z,44.33
2023-03-24T12:21:27.219Z,44.38
2023-03-24T12:24:08.570Z,44.49
2023-03-24T12:26:39.545Z,44.55
2023-03-24T12:29:32.557Z,44.40
2023-03-24T12:32:34.097Z,44.37
2023-03-24T12:35:37.017Z,44.34
2023-03-24T12:38:40.052Z,44.00
2023-03-24T12:41:38.718Z,43.41
2023-03-24T12:44:14.231Z,43.45
2023-03-24T12:47:01.906Z,43.29
2023-03-24T12:49:54.106Z,43.38
2023-03-24T12:52:45.907Z,42.98
2023-03-24T12:55:35.259Z,42.71
2023-03-24T12:58:28.959Z,42.83
2023-03-24T13:01:09.885Z,42.65
2023-03-24T13:03:57.211Z,42.19
2023-03-24T13:06:54.592Z,42.14
2023-03-24T13:09:56.604Z,41.76
2023-03-24T13:12:55.276Z,41.65
2023-03-24T13:15:46.313Z,41.33
2023-03-24T13:18:44.797Z,41.46
2023-03-24T13:21:20.942Z,41.62
2023-03-24T13:24:01.262Z,41.35
2023-03-24T13:27:06.007Z,41.24
2023-03-24T13:29:55.311Z,41.33
2023-03-24T13:32:43.901Z,41.11
2023-03-24T13:35:53.374Z,41.24
2023-03-24T13:38:43.154Z,41.31
2023-03-24T13:41:16.057Z,41.61
2023-03-24T13:43:52.317Z,41.48
2023-03-24T13:46:21.448Z,41.48
2023-03-24T13:48:55.934Z,41.37
2023-03-24T13:51:33.885Z,41.54
2023-03-24T13:54:22.952Z,41.34
2023-03-24T13:57:10.717Z,41.58
2023-03-24T13:59:42.072Z,41.36
2023-03-24T14:02:31.478Z,41.57
2023-03-24T14:05:08.076Z,41.55
2023-03-24T14:07:44.027Z,41.73
2023-03-24T14:10:21.311Z,41.58
2023-03-24T14:13:01.834Z,41.59
2023-03-24T14:15:57.485Z,41.73
2023-03-24T14:18:32.136Z,41.65
2023-03-24T14:21:04.242Z,41.68
2023-03-24T14:23:46.566Z,41.62
2023-03-24T14:26:28.088Z,41.88
2023-03-24T14:28:58.350Z,42.01
2023-03-24T14:31:34.498Z,41.98
2023-03-24T14:34:11.382Z,42.09
2023-03-24T14:36:44.774Z,42.05
2023-03-24T14:39:43.397Z,42.01
2023-03-24T14:42:37.070Z,42.16
2023-03-24T14:45:27.366Z,42.16
2023-03-24T14:48:01.279Z,42.36
2023-03-24T14:50:31.343Z,42.63
2023-03-24T14:53:02.250Z,42.67
2023-03-24T14:55:42.399Z,42.70
2023-03-24T14:58:38.475Z,42.74
2023-03-24T15:01:08.214Z,42.83
2023-03-24T15:03:54.756Z,42.90
2023-03-24T15:06:25.301Z,43.22
2023-03-24T15:08:59.669Z,42.88
2023-03-24T15:11:32.492Z,43.16
2023-03-24T15:14:04.138Z,43.36
2023-03-24T15:16:36.153Z,43.48
2023-03-24T15:19:22.080Z,43.67
2023-03-24T15:22:05.580Z,43.72
2023-03-24T15:24:37.210Z,43.92
2023-03-24T15:27:26.313Z,44.03
2023-03-24T15:29:59.491Z,44.20
2023-03-24T15:32:30.404Z,44.29
2023-03-24T15:35:04.659Z,44.37
2023-03-24T15:37:40.099Z,44.35
2023-03-24T15:40:30.558Z,44.54
2023-03-24T15:43:04.124Z,44.51
2023-03-24T15:45:35.827Z,44.66
2023-03-24T15:48:08.635Z,44.71
2023-03-24T15:50:39.819Z,44.90
2023-03-24T15:53:22.661Z,44.95
2023-03-24T15:56:08.898Z,45.01
2023-03-24T15:58:55.456Z,45.15
2023-03-24T16:01:29.745Z,45.28
2023-03-24T16:04:00.971Z,45.34
2023-03-24T16:06:36.237Z,45.51
2023-03-24T16:09:10.674Z,45.70
2023-03-24T16:11:41.361Z,45.78
2023-03-24T16:14:32.161Z,45.80
2023-03-24T16:17:04.750Z,45.81
2023-03-24T16:19:33.964Z,46.01
2023-03-24T16:22:12.177Z,46.14
2023-03-24T16:24:41.159Z,46.20
2023-03-24T16:27:12.033Z,46.32
2023-03-24T16:29:43.393Z,46.48
2023-03-24T16:32:12.110Z,46.52
2023-03-24T16:34:40.893Z,47.10
2023-03-24T16:37:11.430Z,47.41
2023-03-24T16:39:41.009Z,47.27
2023-03-24T16:42:09.635Z,47.33
2023-03-24T16:44:38.513Z,47.30
2023-03-24T16:47:10.270Z,47.84
2023-03-24T16:49:39.698Z,48.06
2023-03-24T16:52:12.844Z,47.89
2023-03-24T16:54:42.873Z,47.95
2023-03-24T16:57:12.318Z,48.54
2023-03-24T16:59:41.605Z,48.31
2023-03-24T17:02:11.369Z,48.20
2023-03-24T17:04:42.659Z,48.26
2023-03-24T17:07:11.233Z,48.39
2023-03-24T17:09:41.541Z,48.48
2023-03-24T17:12:12.083Z,48.50
2023-03-24T17:14:44.426Z,48.55
2023-03-24T17:17:14.227Z,48.70
2023-03-24T17:19:43.384Z,48.86
2023-03-24T17:22:16.197Z,49.05
2023-03-24T17:24:47.444Z,49.14
2023-03-24T17:27:18.715Z,49.13
2023-03-24T17:29:48.572Z,49.23
2023-03-24T17:32:19.369Z,49.40
2023-03-24T17:34:50.239Z,49.61
2023-03-24T17:37:20.198Z,49.94
2023-03-24T17:39:49.053Z,50.17
2023-03-24T17:42:17.728Z,50.34
2023-03-24T17:44:46.688Z,50.57
2023-03-24T17:47:17.249Z,50.92
2023-03-24T17:49:47.688Z,51.16
2023-03-24T17:52:16.455Z,51.42
2023-03-24T17:54:46.603Z,51.58
2023-03-24T17:57:15.473Z,51.71
2023-03-24T17:59:45.498Z,51.83
2023-03-24T18:02:14.407Z,51.99
2023-03-24T18:04:44.493Z,52.21
2023-03-24T18:07:14.693Z,52.49
2023-03-24T18:09:44.710Z,52.90
2023-03-24T18:12:13.778Z,53.34
2023-03-24T18:14:43.146Z,53.82
2023-03-24T18:17:14.571Z,53.95
2023-03-24T18:19:43.402Z,54.11
2023-03-24T18:22:13.704Z,54.19
2023-03-24T18:24:44.078Z,54.77
2023-03-24T18:27:13.126Z,56.01
2023-03-24T18:29:42.506Z,56.76
2023-03-24T18:32:11.564Z,57.08
2023-03-24T18:34:44.566Z,56.43
2023-03-24T18:37:15.128Z,56.02
2023-03-24T18:39:44.433Z,56.15
2023-03-24T18:42:13.296Z,56.59
2023-03-24T18:44:43.985Z,56.74
2023-03-24T18:47:13.258Z,57.11
2023-03-24T18:49:43.513Z,57.29
2023-03-24T18:52:15.400Z,56.74
2023-03-24T18:54:45.509Z,56.40
2023-03-24T18:57:14.597Z,57.04
2023-03-24T18:59:45.392Z,57.40
2023-03-24T19:02:15.698Z,57.46
2023-03-24T19:04:46.365Z,57.57
2023-03-24T19:07:18.719Z,57.62
2023-03-24T19:09:48.995Z,57.18
2023-03-24T19:12:17.792Z,57.11
2023-03-24T19:14:47.666Z,57.22
2023-03-24T19:17:16.998Z,57.13
2023-03-24T19:19:45.635Z,57.30
2023-03-24T19:24:45.965Z,57.23
2023-03-24T19:27:16.531Z,57.23
2023-03-24T19:29:47.290Z,57.29
2023-03-24T19:32:16.229Z,57.24
2023-03-24T19:34:46.700Z,57.09
2023-03-24T19:37:18.590Z,57.16
2023-03-24T19:39:49.757Z,57.34
2023-03-24T19:42:18.769Z,57.58
2023-03-24T19:44:47.783Z,57.93
2023-03-24T19:47:16.512Z,58.22
2023-03-24T19:49:46.382Z,58.56
2023-03-24T19:52:16.846Z,58.78
2023-03-24T19:54:46.754Z,59.01
2023-03-24T19:57:16.723Z,59.16
2023-03-24T19:59:46.271Z,59.37
2023-03-24T20:02:16.809Z,59.73
2023-03-24T20:04:45.463Z,60.06
2023-03-24T20:07:15.169Z,60.33
2023-03-24T20:09:46.308Z,60.67
2023-03-24T20:12:15.094Z,60.68
2023-03-24T20:14:44.229Z,60.97
2023-03-24T20:17:17.718Z,61.14
2023-03-24T20:19:47.247Z,61.37
2023-03-24T20:22:16.434Z,61.66
2023-03-24T20:24:47.873Z,61.84
2023-03-24T20:27:18.830Z,61.92
2023-03-24T20:29:47.911Z,61.90
2023-03-24T20:32:17.897Z,61.92
2023-03-24T20:34:46.715Z,61.98
2023-03-24T20:37:17.544Z,61.99
2023-03-24T20:39:47.868Z,62.09
2023-03-24T20:42:17.881Z,62.19
2023-03-24T20:44:46.477Z,62.28
2023-03-24T20:47:16.503Z,62.38
2023-03-24T20:49:45.700Z,62.44
2023-03-24T20:52:14.823Z,62.49
2023-03-24T20:54:45.870Z,62.52
2023-03-24T20:57:17.105Z,62.67
2023-03-24T20:59:48.641Z,62.78
2023-03-24T21:02:18.677Z,62.90
2023-03-24T21:04:49.160Z,63.05
2023-03-24T21:07:18.155Z,63.13
2023-03-24T21:09:47.028Z,63.28
2023-03-24T21:12:16.281Z,63.46
2023-03-24T21:14:46.415Z,63.48
2023-03-24T21:17:15.738Z,63.49
2023-03-24T21:19:46.490Z,63.39
2023-03-24T21:22:15.565Z,63.43
2023-03-24T21:24:45.791Z,63.45
2023-03-24T21:27:14.502Z,63.20
2023-03-24T21:29:46.735Z,62.90
2023-03-24T21:32:17.833Z,62.62
2023-03-24T21:34:46.680Z,62.41
2023-03-24T21:37:18.956Z,62.15
2023-03-24T21:39:48.047Z,61.97
2023-03-24T21:42:18.979Z,61.83
2023-03-24T21:44:50.660Z,61.57
2023-03-24T21:47:22.365Z,61.40
2023-03-24T21:49:53.245Z,61.29
2023-03-24T21:52:22.386Z,61.11
2023-03-24T21:54:53.513Z,61.04
2023-03-24T21:57:22.274Z,61.03
2023-03-24T21:59:52.734Z,61.01
2023-03-24T22:02:24.614Z,61.00
2023-03-24T22:04:54.790Z,60.89
2023-03-24T22:07:23.400Z,60.85
2023-03-24T22:09:54.303Z,60.83
2023-03-24T22:12:22.943Z,60.82
2023-03-24T22:14:53.285Z,60.69
2023-03-24T22:17:23.535Z,60.61
2023-03-24T22:19:52.619Z,60.51
2023-03-24T22:22:22.499Z,60.52
2023-03-24T22:24:51.625Z,60.44
2023-03-24T22:27:20.870Z,60.55
2023-03-24T22:29:51.137Z,60.70
2023-03-24T22:32:20.113Z,60.85
2023-03-24T22:34:52.912Z,61.10
2023-03-24T22:37:23.050Z,61.26
2023-03-24T22:39:51.785Z,61.29
2023-03-24T22:42:23.924Z,61.10
2023-03-24T22:44:52.997Z,61.01
2023-03-24T22:47:23.849Z,60.92
2023-03-24T22:49:52.845Z,60.85
2023-03-24T22:52:21.618Z,60.89
2023-03-24T22:54:50.368Z,60.94
2023-03-24T22:57:19.617Z,61.01
2023-03-24T22:59:48.709Z,61.04
2023-03-24T23:02:19.657Z,61.15
2023-03-24T23:04:49.361Z,61.29
2023-03-24T23:07:18.974Z,61.22
2023-03-24T23:09:47.897Z,61.24
2023-03-24T23:12:16.565Z,61.18
2023-03-24T23:14:46.298Z,60.95
2023-03-24T23:17:15.624Z,60.83
2023-03-24T23:19:46.111Z,60.79
2023-03-24T23:22:14.423Z,60.70
2023-03-24T23:24:44.406Z,60.62
2023-03-24T23:27:13.772Z,60.28
2023-03-24T23:29:42.373Z,60.33
2023-03-24T23:32:13.156Z,60.32
2023-03-24T23:34:46.245Z,60.22
2023-03-24T23:37:16.872Z,60.15
2023-03-24T23:39:48.912Z,60.19
2023-03-24T23:42:18.172Z,60.14
2023-03-24T23:44:48.287Z,60.13
2023-03-24T23:47:18.465Z,60.08
2023-03-24T23:49:48.328Z,60.16
2023-03-24T23:52:17.982Z,59.97
2023-03-24T23:54:48.223Z,59.95
2023-03-24T23:57:18.112Z,59.94
2023-03-24T23:59:52.699Z,59.90
